createdAt,value
2019-02-11T00:01:57.254Z,24.00
2019-02-11T00:04:26.683Z,24.60
2019-02-11T00:06:56.012Z,23.80
2019-02-11T00:09:25.362Z,23.90
2019-02-11T00:11:54.691Z,26.00
2019-02-11T00:14:24.053Z,21.07
2019-02-11T00:16:53.385Z,22.53
2019-02-11T00:19:22.736Z,19.07
2019-02-11T00:21:52.064Z,20.10
2019-02-11T00:24:21.491Z,27.67
2019-02-11T00:26:50.895Z,19.97
2019-02-11T00:29:20.255Z,18.87
2019-02-11T00:31:49.652Z,19.60
2019-02-11T00:34:19.085Z,17.37
2019-02-11T00:36:48.408Z,26.20
2019-02-11T00:39:17.975Z,30.10
2019-02-11T00:41:47.305Z,16.63
2019-02-11T00:44:16.655Z,20.63
2019-02-11T00:46:46.147Z,18.37
2019-02-11T00:49:15.994Z,20.73
2019-02-11T00:51:45.324Z,24.30
2019-02-11T00:54:15.067Z,18.83
2019-02-11T00:56:44.401Z,19.07
2019-02-11T00:59:13.759Z,18.03
2019-02-11T01:01:43.144Z,21.50
2019-02-11T01:04:13.023Z,18.70
2019-02-11T01:06:42.379Z,17.17
2019-02-11T01:09:11.707Z,20.57
2019-02-11T01:11:41.307Z,16.43
2019-02-11T01:14:10.634Z,18.53
2019-02-11T01:16:39.994Z,30.83
2019-02-11T01:19:09.317Z,19.07
2019-02-11T01:21:38.689Z,25.83
2019-02-11T01:24:08.022Z,16.33
2019-02-11T01:26:37.394Z,18.60
2019-02-11T01:29:06.760Z,17.03
2019-02-11T01:31:36.109Z,14.57
2019-02-11T01:34:05.438Z,17.43
2019-02-11T01:36:34.800Z,15.30
2019-02-11T01:39:04.799Z,14.57
2019-02-11T01:41:34.167Z,16.70
2019-02-11T01:44:03.496Z,16.00
2019-02-11T01:46:32.849Z,14.00
2019-02-11T01:49:02.173Z,13.63
2019-02-11T01:51:31.521Z,17.40
2019-02-11T01:54:00.856Z,14.40
2019-02-11T01:56:30.202Z,13.07
2019-02-11T01:58:59.523Z,19.40
2019-02-11T02:01:28.880Z,15.43
2019-02-11T02:03:58.674Z,15.17
2019-02-11T02:06:28.025Z,15.40
2019-02-11T02:08:57.341Z,13.63
2019-02-11T02:11:26.698Z,15.37
2019-02-11T02:13:56.094Z,15.23
2019-02-11T02:16:25.455Z,14.17
2019-02-11T02:18:54.783Z,13.20
2019-02-11T02:21:24.124Z,13.87
2019-02-11T02:23:53.448Z,15.90
2019-02-11T02:26:22.802Z,11.50
2019-02-11T02:28:52.128Z,11.40
2019-02-11T02:31:21.470Z,11.70
2019-02-11T02:33:50.794Z,12.53
2019-02-11T02:36:20.142Z,11.97
2019-02-11T02:38:49.464Z,13.00
2019-02-11T02:41:18.815Z,10.50
2019-02-11T02:43:55.164Z,9.83
2019-02-11T02:46:19.182Z,8.07
2019-02-11T02:48:48.500Z,11.33
2019-02-11T02:51:17.977Z,8.40
2019-02-11T02:53:47.307Z,7.57
2019-02-11T02:56:16.653Z,12.53
2019-02-11T02:58:45.974Z,7.73
2019-02-11T03:01:15.339Z,7.63
2019-02-11T03:03:44.660Z,9.90
2019-02-11T03:06:14.265Z,9.20
2019-02-11T03:08:44.022Z,12.40
2019-02-11T03:11:13.921Z,14.10
2019-02-11T03:13:43.342Z,13.23
2019-02-11T03:16:12.662Z,14.50
2019-02-11T03:18:42.013Z,8.47
2019-02-11T03:21:11.331Z,10.27
2019-02-11T03:23:40.691Z,10.90
2019-02-11T03:26:10.024Z,10.40
2019-02-11T03:28:39.373Z,11.87
2019-02-11T03:31:08.698Z,12.87
2019-02-11T03:33:38.040Z,8.93
2019-02-11T03:36:07.358Z,9.00
2019-02-11T03:38:36.711Z,10.43
2019-02-11T03:41:06.025Z,8.37
2019-02-11T03:43:35.398Z,21.27
2019-02-11T03:46:04.719Z,11.57
2019-02-11T03:48:34.072Z,10.93
2019-02-11T03:51:03.395Z,19.77
2019-02-11T03:53:32.756Z,51.97
2019-02-11T03:56:02.129Z,7.97
2019-02-11T03:58:31.528Z,10.00
2019-02-11T04:01:00.852Z,13.57
2019-02-11T04:03:30.210Z,13.73
2019-02-11T04:05:59.565Z,15.93
2019-02-11T04:08:28.874Z,10.70
2019-02-11T04:10:58.230Z,20.93
2019-02-11T04:13:27.549Z,26.10
2019-02-11T04:15:56.895Z,8.77
2019-02-11T04:18:26.228Z,8.23
2019-02-11T04:20:55.566Z,5.87
2019-02-11T04:23:24.886Z,10.07
2019-02-11T04:25:54.235Z,23.80
2019-02-11T04:28:23.553Z,8.80
2019-02-11T04:30:52.902Z,8.83
2019-02-11T04:33:22.228Z,9.20
2019-02-11T04:35:51.589Z,6.60
2019-02-11T04:38:20.892Z,9.23
2019-02-11T04:40:50.265Z,7.73
2019-02-11T04:43:19.568Z,9.53
2019-02-11T04:45:48.928Z,10.27
2019-02-11T04:48:18.255Z,5.13
2019-02-11T04:50:48.101Z,2.80
2019-02-11T04:53:17.419Z,2.77
2019-02-11T04:55:46.772Z,2.37
2019-02-11T04:58:16.088Z,2.53
2019-02-11T05:00:47.065Z,2.93
2019-02-11T05:03:26.219Z,3.40
2019-02-11T05:05:55.539Z,2.80
2019-02-11T05:08:24.858Z,1.80
2019-02-11T05:10:54.207Z,2.77
2019-02-11T05:13:23.555Z,2.73
2019-02-11T05:15:55.166Z,8.20
2019-02-11T05:18:25.780Z,2.10
2019-02-11T05:20:56.555Z,3.57
2019-02-11T05:23:25.910Z,2.20
2019-02-11T05:26:04.207Z,1.67
2019-02-11T05:28:41.666Z,1.77
2019-02-11T05:31:11.420Z,3.30
2019-02-11T05:33:40.743Z,5.37
2019-02-11T05:36:12.166Z,2.80
2019-02-11T05:38:42.773Z,2.73
2019-02-11T05:41:12.124Z,3.03
2019-02-11T05:43:47.415Z,2.93
2019-02-11T05:46:16.866Z,6.43
2019-02-11T05:48:46.187Z,4.77
2019-02-11T05:51:16.110Z,3.30
2019-02-11T05:53:45.476Z,3.57
2019-02-11T05:56:15.165Z,6.33
2019-02-11T05:58:44.514Z,1.53
2019-02-11T06:01:14.645Z,1.10
2019-02-11T06:03:44.273Z,1.50
2019-02-11T06:06:13.581Z,1.03
2019-02-11T06:08:49.021Z,1.67
2019-02-11T06:11:20.241Z,1.13
2019-02-11T06:13:50.705Z,3.40
2019-02-11T06:16:26.966Z,4.77
2019-02-11T06:19:01.762Z,0.57
2019-02-11T06:21:40.199Z,1.17
2019-02-11T06:24:19.095Z,2.40
2019-02-11T06:26:55.410Z,0.30
2019-02-11T06:29:36.408Z,2.80
2019-02-11T06:32:12.963Z,0.50
2019-02-11T06:34:49.727Z,1.57
2019-02-11T06:37:22.295Z,2.23
2019-02-11T06:39:51.666Z,1.97
2019-02-11T06:42:20.991Z,2.00
2019-02-11T06:44:50.347Z,3.73
2019-02-11T06:47:19.847Z,11.07
2019-02-11T06:49:49.198Z,2.10
2019-02-11T06:52:18.519Z,8.33
2019-02-11T06:54:47.878Z,3.03
2019-02-11T06:57:17.666Z,6.00
2019-02-11T06:59:47.022Z,11.27
2019-02-11T07:02:16.350Z,17.70
2019-02-11T07:04:45.717Z,9.27
2019-02-11T07:07:18.720Z,2.03
2019-02-11T07:09:49.913Z,1.73
2019-02-11T07:12:19.465Z,0.83
2019-02-11T07:14:54.437Z,0.77
2019-02-11T07:17:27.459Z,1.33
2019-02-11T07:19:57.657Z,1.57
2019-02-11T07:22:32.020Z,1.53
2019-02-11T07:25:05.164Z,2.23
2019-02-11T07:27:34.876Z,2.33
2019-02-11T07:30:05.383Z,0.60
2019-02-11T07:32:35.141Z,1.80
2019-02-11T07:35:05.856Z,1.80
2019-02-11T07:37:35.245Z,1.10
2019-02-11T07:40:10.431Z,1.67
2019-02-11T07:42:44.075Z,0.97
2019-02-11T07:45:29.691Z,1.10
2019-02-11T07:47:53.104Z,3.07
2019-02-11T07:50:24.922Z,3.87
2019-02-11T07:52:54.956Z,1.40
2019-02-11T07:55:25.111Z,1.43
2019-02-11T07:57:57.774Z,1.27
2019-02-11T08:00:28.603Z,0.83
2019-02-11T08:03:00.605Z,0.53
2019-02-11T08:05:32.580Z,0.70
2019-02-11T08:08:02.527Z,0.60
2019-02-11T08:10:31.962Z,2.03
2019-02-11T08:13:01.278Z,1.03
2019-02-11T08:15:37.221Z,0.63
2019-02-11T08:18:06.020Z,1.37
2019-02-11T08:20:39.818Z,1.60
2019-02-11T08:23:13.210Z,2.40
2019-02-11T08:25:40.966Z,1.77
2019-02-11T08:28:19.499Z,3.50
2019-02-11T08:30:51.898Z,2.53
2019-02-11T08:33:30.458Z,0.80
2019-02-11T08:36:02.523Z,3.37
2019-02-11T08:38:32.613Z,0.70
2019-02-11T08:41:05.602Z,2.93
2019-02-11T08:43:36.809Z,2.37
2019-02-11T08:46:07.704Z,1.87
2019-02-11T08:48:38.050Z,2.73
2019-02-11T08:51:10.935Z,1.67
2019-02-11T08:53:41.750Z,6.87
2019-02-11T08:56:11.751Z,3.50
2019-02-11T08:58:41.266Z,3.53
2019-02-11T09:01:11.783Z,2.77
2019-02-11T09:03:43.900Z,3.77
2019-02-11T09:06:13.315Z,6.10
2019-02-11T09:08:42.627Z,5.80
2019-02-11T09:11:11.997Z,7.20
2019-02-11T09:13:41.339Z,6.97
2019-02-11T09:16:19.525Z,4.97
2019-02-11T09:18:53.127Z,7.60
2019-02-11T09:21:22.571Z,10.10
2019-02-11T09:23:56.855Z,6.90
2019-02-11T09:26:28.150Z,7.13
2019-02-11T09:29:08.943Z,6.17
2019-02-11T09:31:40.019Z,4.73
2019-02-11T09:34:11.445Z,5.90
2019-02-11T09:36:42.769Z,9.97
2019-02-11T09:39:14.173Z,8.37
2019-02-11T09:41:43.498Z,6.43
2019-02-11T09:44:12.874Z,8.60
2019-02-11T09:46:42.285Z,8.27
2019-02-11T09:49:11.634Z,10.87
2019-02-11T09:51:43.493Z,6.20
2019-02-11T09:54:12.849Z,4.77
2019-02-11T09:56:42.222Z,5.47
2019-02-11T09:59:11.588Z,6.40
2019-02-11T10:01:40.942Z,7.50
2019-02-11T10:04:10.307Z,7.63
2019-02-11T10:06:39.627Z,5.23
2019-02-11T10:09:08.989Z,4.13
2019-02-11T10:11:38.307Z,6.17
2019-02-11T10:14:07.666Z,7.67
2019-02-11T10:16:36.988Z,7.77
2019-02-11T10:19:06.328Z,7.73
2019-02-11T10:21:35.644Z,7.87
2019-02-11T10:24:06.308Z,7.17
2019-02-11T10:26:35.793Z,7.37
2019-02-11T10:29:05.150Z,14.63
2019-02-11T10:31:34.482Z,15.27
2019-02-11T10:34:04.461Z,7.07
2019-02-11T10:36:33.777Z,8.93
2019-02-11T10:39:03.837Z,7.73
2019-02-11T10:41:38.993Z,12.40
2019-02-11T10:44:18.434Z,17.57
2019-02-11T10:46:46.163Z,14.90
2019-02-11T10:49:21.513Z,17.20
2019-02-11T10:51:55.812Z,12.83
2019-02-11T10:54:25.274Z,8.40
2019-02-11T10:56:54.588Z,17.93
2019-02-11T10:59:23.958Z,6.30
2019-02-11T11:01:54.939Z,10.53
2019-02-11T11:04:24.310Z,4.27
2019-02-11T11:06:53.662Z,9.87
2019-02-11T11:09:23.024Z,4.40
2019-02-11T11:11:52.377Z,6.30
2019-02-11T11:14:21.766Z,6.30
2019-02-11T11:16:51.147Z,5.77
2019-02-11T11:19:20.464Z,4.67
2019-02-11T11:21:49.837Z,5.67
2019-02-11T11:24:19.172Z,6.57
2019-02-11T11:26:48.530Z,3.07
2019-02-11T11:29:19.219Z,3.97
2019-02-11T11:31:49.238Z,7.23
2019-02-11T11:34:22.757Z,8.13
2019-02-11T11:36:57.659Z,13.60
2019-02-11T11:39:27.156Z,30.53
2019-02-11T11:41:59.034Z,15.13
2019-02-11T11:44:33.539Z,8.63
2019-02-11T11:47:04.854Z,5.97
2019-02-11T11:49:38.128Z,5.03
2019-02-11T11:52:07.780Z,10.30
2019-02-11T11:54:37.107Z,4.30
2019-02-11T11:57:07.989Z,3.30
2019-02-11T11:59:37.305Z,6.87
2019-02-11T12:02:06.663Z,11.67
2019-02-11T12:04:35.979Z,10.37
2019-02-11T12:07:05.363Z,9.80
2019-02-11T12:09:34.731Z,5.97
2019-02-11T12:12:04.089Z,4.87
2019-02-11T12:14:34.421Z,5.30
2019-02-11T12:17:03.735Z,9.77
2019-02-11T12:19:33.250Z,3.37
2019-02-11T12:22:02.634Z,3.23
2019-02-11T12:24:31.995Z,3.77
2019-02-11T12:27:01.312Z,3.93
2019-02-11T12:29:30.852Z,6.30
2019-02-11T12:32:00.164Z,3.83
2019-02-11T12:34:29.904Z,5.27
2019-02-11T12:36:59.212Z,5.27
2019-02-11T12:39:28.585Z,6.93
2019-02-11T12:41:57.896Z,2.73
2019-02-11T12:44:27.277Z,6.10
2019-02-11T12:47:12.778Z,5.07
2019-02-11T12:49:27.656Z,8.60
2019-02-11T12:51:56.971Z,3.97
2019-02-11T12:54:26.329Z,5.17
2019-02-11T12:56:55.645Z,2.83
2019-02-11T12:59:25.144Z,6.17
2019-02-11T13:01:58.504Z,8.00
2019-02-11T13:04:28.494Z,2.90
2019-02-11T13:07:07.867Z,8.27
2019-02-11T13:09:43.279Z,6.87
2019-02-11T13:12:12.613Z,6.43
2019-02-11T13:14:41.984Z,5.00
2019-02-11T13:17:15.467Z,6.27
2019-02-11T13:19:42.950Z,9.03
2019-02-11T13:22:12.520Z,6.87
2019-02-11T13:24:41.885Z,6.97
2019-02-11T13:27:11.232Z,8.30
2019-02-11T13:29:40.543Z,9.10
2019-02-11T13:32:10.769Z,8.00
2019-02-11T13:34:40.295Z,5.03
2019-02-11T13:37:12.659Z,6.07
2019-02-11T13:39:41.968Z,4.30
2019-02-11T13:42:11.322Z,6.17
2019-02-11T13:44:40.645Z,6.07
2019-02-11T13:47:09.986Z,6.33
2019-02-11T13:49:39.325Z,10.17
2019-02-11T13:52:08.664Z,8.03
2019-02-11T13:54:37.994Z,9.37
2019-02-11T13:57:07.351Z,5.17
2019-02-11T13:59:36.752Z,6.13
2019-02-11T14:02:06.129Z,6.30
2019-02-11T14:04:35.425Z,5.97
2019-02-11T14:07:04.933Z,8.77
2019-02-11T14:09:34.272Z,8.93
2019-02-11T14:12:06.032Z,6.27
2019-02-11T14:14:39.806Z,8.83
2019-02-11T14:17:15.888Z,9.30
2019-02-11T14:19:54.229Z,6.63
2019-02-11T14:22:23.577Z,7.10
2019-02-11T14:24:53.867Z,6.47
2019-02-11T14:27:23.223Z,10.20
2019-02-11T14:29:52.550Z,7.80
2019-02-11T14:32:21.961Z,10.70
2019-02-11T14:34:51.270Z,4.63
2019-02-11T14:37:20.575Z,9.53
2019-02-11T14:39:49.928Z,9.17
2019-02-11T14:42:19.247Z,8.53
2019-02-11T14:44:48.627Z,6.20
2019-02-11T14:47:18.233Z,8.57
2019-02-11T14:49:47.556Z,6.73
2019-02-11T14:52:16.885Z,3.53
2019-02-11T14:54:47.799Z,5.00
2019-02-11T14:57:17.187Z,5.70
2019-02-11T14:59:46.666Z,3.17
2019-02-11T15:02:16.466Z,3.63
2019-02-11T15:04:45.808Z,9.73
2019-02-11T15:07:15.243Z,5.40
2019-02-11T15:09:44.637Z,4.80
2019-02-11T15:12:13.958Z,5.73
2019-02-11T15:14:43.315Z,5.73
2019-02-11T15:17:12.648Z,12.70
2019-02-11T15:19:42.014Z,11.20
2019-02-11T15:22:11.348Z,15.43
2019-02-11T15:24:40.704Z,32.00
2019-02-11T15:27:17.043Z,8.53
2019-02-11T15:29:41.118Z,3.77
2019-02-11T15:32:10.468Z,6.73
2019-02-11T15:34:39.863Z,29.30
2019-02-11T15:37:09.197Z,22.83
2019-02-11T15:39:38.531Z,18.57
2019-02-11T15:42:07.889Z,13.87
2019-02-11T15:44:37.222Z,47.50
2019-02-11T15:47:06.585Z,18.03
2019-02-11T15:49:35.920Z,10.23
2019-02-11T15:52:05.275Z,10.57
2019-02-11T15:54:34.611Z,12.40
2019-02-11T15:57:03.964Z,10.90
2019-02-11T15:59:33.283Z,9.50
2019-02-11T16:02:02.636Z,12.80
2019-02-11T16:04:31.973Z,26.37
2019-02-11T16:07:01.339Z,14.73
2019-02-11T16:09:30.667Z,13.37
2019-02-11T16:12:00.118Z,20.03
2019-02-11T16:14:29.435Z,11.17
2019-02-11T16:16:58.800Z,21.67
2019-02-11T16:19:28.137Z,12.17
2019-02-11T16:21:57.507Z,43.83
2019-02-11T16:24:26.833Z,74.90
2019-02-11T16:26:56.202Z,199.20
2019-02-11T16:29:25.544Z,42.53
2019-02-11T16:32:00.520Z,109.70
2019-02-11T16:34:26.216Z,74.00
2019-02-11T16:36:55.586Z,77.33
2019-02-11T16:39:24.929Z,40.90
2019-02-11T16:41:54.470Z,12.80
2019-02-11T16:44:23.796Z,18.07
2019-02-11T16:46:53.174Z,22.63
2019-02-11T16:49:22.505Z,28.43
2019-02-11T16:51:51.901Z,20.70
2019-02-11T16:54:21.229Z,34.17
2019-02-11T16:56:50.587Z,16.10
2019-02-11T16:59:19.940Z,12.03
2019-02-11T17:01:49.467Z,23.87
2019-02-11T17:04:18.819Z,9.83
2019-02-11T17:06:48.222Z,13.80
2019-02-11T17:09:17.760Z,10.17
2019-02-11T17:11:47.084Z,10.73
2019-02-11T17:14:16.591Z,17.10
2019-02-11T17:16:45.919Z,9.87
2019-02-11T17:19:15.684Z,5.43
2019-02-11T17:21:45.231Z,9.50
2019-02-11T17:24:14.588Z,8.53
2019-02-11T17:26:43.921Z,22.70
2019-02-11T17:29:13.284Z,12.67
2019-02-11T17:31:42.621Z,12.47
2019-02-11T17:34:11.976Z,11.17
2019-02-11T17:36:41.295Z,9.70
2019-02-11T17:39:10.955Z,9.33
2019-02-11T17:41:40.282Z,8.20
2019-02-11T17:44:09.637Z,7.13
2019-02-11T17:46:38.967Z,13.63
2019-02-11T17:49:08.320Z,8.17
2019-02-11T17:51:37.658Z,10.40
2019-02-11T17:54:07.007Z,9.33
2019-02-11T17:56:36.339Z,11.40
2019-02-11T17:59:05.713Z,10.43
2019-02-11T18:01:35.046Z,17.83
2019-02-11T18:04:04.413Z,9.10
2019-02-11T18:06:33.779Z,10.47
2019-02-11T18:09:04.580Z,9.30
2019-02-11T18:11:33.933Z,10.47
2019-02-11T18:14:03.254Z,7.87
2019-02-11T18:16:32.623Z,26.13
2019-02-11T18:19:01.949Z,9.03
2019-02-11T18:21:32.789Z,11.53
2019-02-11T18:24:02.210Z,11.03
2019-02-11T18:26:31.570Z,56.70
2019-02-11T18:29:00.898Z,19.30
2019-02-11T18:31:30.261Z,68.07
2019-02-11T18:33:59.598Z,68.03
2019-02-11T18:36:28.972Z,30.07
2019-02-11T18:38:58.300Z,10.57
2019-02-11T18:41:27.673Z,8.00
2019-02-11T18:43:56.999Z,10.07
2019-02-11T18:46:26.372Z,8.07
2019-02-11T18:48:55.734Z,5.67
2019-02-11T18:51:25.103Z,20.20
2019-02-11T18:53:54.424Z,6.37
2019-02-11T18:56:23.779Z,4.90
2019-02-11T18:58:53.103Z,9.67
2019-02-11T19:01:22.458Z,9.60
2019-02-11T19:03:51.786Z,7.47
2019-02-11T19:06:21.137Z,7.87
2019-02-11T19:08:50.512Z,12.97
2019-02-11T19:11:19.839Z,8.83
2019-02-11T19:13:49.494Z,8.00
2019-02-11T19:16:18.845Z,10.17
2019-02-11T19:18:48.210Z,8.50
2019-02-11T19:21:17.529Z,9.63
2019-02-11T19:23:47.500Z,6.03
2019-02-11T19:26:16.825Z,8.57
2019-02-11T19:28:46.586Z,6.53
2019-02-11T19:31:15.929Z,5.63
2019-02-11T19:33:45.653Z,11.23
2019-02-11T19:36:15.357Z,8.00
2019-02-11T19:38:44.738Z,6.50
2019-02-11T19:41:14.061Z,9.43
2019-02-11T19:43:43.409Z,12.50
2019-02-11T19:46:12.731Z,11.63
2019-02-11T19:48:42.084Z,14.37
2019-02-11T19:51:11.418Z,12.03
2019-02-11T19:53:40.783Z,12.73
2019-02-11T19:56:10.115Z,10.77
2019-02-11T20:01:29.776Z,7.80
2019-02-11T20:04:07.037Z,12.93
2019-02-11T20:06:30.156Z,16.77
2019-02-11T20:08:59.525Z,15.40
2019-02-11T20:11:28.866Z,10.47
2019-02-11T20:13:58.221Z,17.17
2019-02-11T20:16:27.556Z,16.73
2019-02-11T20:18:56.914Z,23.60
2019-02-11T20:21:26.249Z,14.50
2019-02-11T20:23:55.615Z,16.30
2019-02-11T20:26:24.946Z,33.23
2019-02-11T20:28:54.309Z,31.70
2019-02-11T20:31:23.650Z,47.10
2019-02-11T20:33:53.084Z,59.17
2019-02-11T20:36:23.314Z,57.83
2019-02-11T20:38:52.679Z,38.73
2019-02-11T20:41:22.004Z,21.00
2019-02-11T20:43:51.360Z,23.77
2019-02-11T20:46:20.693Z,17.07
2019-02-11T20:48:50.414Z,15.40
2019-02-11T20:51:19.745Z,16.80
2019-02-11T20:53:49.473Z,17.10
2019-02-11T20:56:18.802Z,16.83
2019-02-11T20:58:48.160Z,17.77
2019-02-11T21:01:17.521Z,23.13
2019-02-11T21:03:46.938Z,19.10
2019-02-11T21:06:16.288Z,15.33
2019-02-11T21:08:45.609Z,17.63
2019-02-11T21:11:15.259Z,9.60
2019-02-11T21:13:45.798Z,6.90
2019-02-11T21:16:15.677Z,11.00
2019-02-11T21:18:45.005Z,9.77
2019-02-11T21:21:16.000Z,14.50
2019-02-11T21:23:45.323Z,12.23
2019-02-11T21:26:14.749Z,18.13
2019-02-11T21:28:44.074Z,13.60
2019-02-11T21:31:14.442Z,15.40
2019-02-11T21:33:43.768Z,10.27
2019-02-11T21:36:12.936Z,9.97
2019-02-11T21:38:42.264Z,11.17
2019-02-11T21:41:11.618Z,7.60
2019-02-11T21:43:40.947Z,9.03
2019-02-11T21:46:10.306Z,10.57
2019-02-11T21:48:39.673Z,11.30
2019-02-11T21:51:09.997Z,7.47
2019-02-11T21:53:40.339Z,5.03
2019-02-11T21:56:09.705Z,9.17
2019-02-11T21:58:39.392Z,10.33
2019-02-11T22:01:08.767Z,11.37
2019-02-11T22:03:38.105Z,8.17
2019-02-11T22:06:07.641Z,11.87
2019-02-11T22:08:37.230Z,9.40
2019-02-11T22:11:06.593Z,5.20
2019-02-11T22:13:35.914Z,5.67
2019-02-11T22:16:05.268Z,4.77
2019-02-11T22:18:34.591Z,6.83
2019-02-11T22:21:03.960Z,6.07
2019-02-11T22:23:33.279Z,6.37
2019-02-11T22:26:02.640Z,11.37
2019-02-11T22:28:32.183Z,4.13
2019-02-11T22:31:01.607Z,12.60
2019-02-11T22:33:30.928Z,5.13
2019-02-11T22:36:00.297Z,6.13
2019-02-11T22:38:29.623Z,10.77
2019-02-11T22:40:58.995Z,5.17
2019-02-11T22:43:28.323Z,4.33
2019-02-11T22:45:57.692Z,6.70
2019-02-11T22:48:27.022Z,8.00
2019-02-11T22:50:56.450Z,7.37
2019-02-11T22:53:25.796Z,4.17
2019-02-11T22:55:55.156Z,4.73
2019-02-11T22:58:24.477Z,5.83
2019-02-11T23:00:56.588Z,7.67
2019-02-11T23:03:25.912Z,8.57
2019-02-11T23:05:55.264Z,8.97
2019-02-11T23:08:24.625Z,6.10
2019-02-11T23:10:53.960Z,10.07
2019-02-11T23:13:23.311Z,9.90
2019-02-11T23:15:52.632Z,4.07
2019-02-11T23:18:21.986Z,8.93
2019-02-11T23:20:52.304Z,10.00
2019-02-11T23:23:21.739Z,9.63
2019-02-11T23:25:51.066Z,7.27
2019-02-11T23:28:20.420Z,7.23
2019-02-11T23:30:49.759Z,12.27
2019-02-11T23:33:19.613Z,13.20
2019-02-11T23:35:48.948Z,13.83
2019-02-11T23:38:18.319Z,8.80
2019-02-11T23:40:47.646Z,7.50
2019-02-11T23:43:17.598Z,5.77
2019-02-11T23:45:46.914Z,5.43
2019-02-11T23:48:16.617Z,6.27
2019-02-11T23:50:45.945Z,6.30
2019-02-11T23:53:15.748Z,3.90
2019-02-11T23:55:45.560Z,5.57
2019-02-11T23:58:15.983Z,4.67
